sensor_id;sensor_type;location;lat;lon;timestamp;P1;P2;P0
77896;PMS5003;67092;64.282;21.056;2023-03-14T00:01:19;10;10;
77896;PMS5003;67092;64.282;21.056;2023-03-14T00:03:44;8;8;
77896;PMS5003;67092;64.282;21.056;2023-03-14T00:06:10;10;7;
77896;PMS5003;67092;64.282;21.056;2023-03-14T00:08:36;11;11;
77896;PMS5003;67092;64.282;21.056;2023-03-14T00:11:04;12;12;
77896;PMS5003;67092;64.282;21.056;2023-03-14T00:13:27;11;10;
77896;PMS5003;67092;64.282;21.056;2023-03-14T00:15:52;10;9;
77896;PMS5003;67092;64.282;21.056;2023-03-14T00:18:18;10;10;
77896;PMS5003;67092;64.282;21.056;2023-03-14T00:20:44;7;7;
77896;PMS5003;67092;64.282;21.056;2023-03-14T00:23:09;11;9;
77896;PMS5003;67092;64.282;21.056;2023-03-14T00:25:35;10;10;
77896;PMS5003;67092;64.282;21.056;2023-03-14T00:28:01;13;11;
77896;PMS5003;67092;64.282;21.056;2023-03-14T00:30:26;10;9;
77896;PMS5003;67092;64.282;21.056;2023-03-14T00:32:52;9;8;
77896;PMS5003;67092;64.282;21.056;2023-03-14T00:35:18;10;10;
77896;PMS5003;67092;64.282;21.056;2023-03-14T00:37:43;8;8;
77896;PMS5003;67092;64.282;21.056;2023-03-14T00:40:09;9;9;
77896;PMS5003;67092;64.282;21.056;2023-03-14T00:42:35;11;10;
77896;PMS5003;67092;64.282;21.056;2023-03-14T00:45:00;11;10;
77896;PMS5003;67092;64.282;21.056;2023-03-14T00:47:26;9;9;
77896;PMS5003;67092;64.282;21.056;2023-03-14T00:49:51;7;6;
77896;PMS5003;67092;64.282;21.056;2023-03-14T00:52:17;6;6;
77896;PMS5003;67092;64.282;21.056;2023-03-14T00:54:43;7;7;
77896;PMS5003;67092;64.282;21.056;2023-03-14T00:57:09;9;8;
77896;PMS5003;67092;64.282;21.056;2023-03-14T00:59:34;7;7;
77896;PMS5003;67092;64.282;21.056;2023-03-14T01:02:00;11;10;
77896;PMS5003;67092;64.282;21.056;2023-03-14T01:04:26;10;9;
77896;PMS5003;67092;64.282;21.056;2023-03-14T01:06:51;10;10;
77896;PMS5003;67092;64.282;21.056;2023-03-14T01:09:17;8;8;
77896;PMS5003;67092;64.282;21.056;2023-03-14T01:11:42;7;7;
77896;PMS5003;67092;64.282;21.056;2023-03-14T01:14:08;8;8;
77896;PMS5003;67092;64.282;21.056;2023-03-14T01:16:34;9;8;
77896;PMS5003;67092;64.282;21.056;2023-03-14T01:18:59;8;8;
77896;PMS5003;67092;64.282;21.056;2023-03-14T01:21:26;9;9;
77896;PMS5003;67092;64.282;21.056;2023-03-14T01:23:51;8;7;
77896;PMS5003;67092;64.282;21.056;2023-03-14T01:26:18;6;6;
77896;PMS5003;67092;64.282;21.056;2023-03-14T01:28:42;5;5;
77896;PMS5003;67092;64.282;21.056;2023-03-14T01:31:09;7;7;
77896;PMS5003;67092;64.282;21.056;2023-03-14T01:33:33;8;8;
77896;PMS5003;67092;64.282;21.056;2023-03-14T01:35:59;8;8;
77896;PMS5003;67092;64.282;21.056;2023-03-14T01:38:24;7;7;
77896;PMS5003;67092;64.282;21.056;2023-03-14T01:40:50;8;7;
77896;PMS5003;67092;64.282;21.056;2023-03-14T01:43:16;8;8;
77896;PMS5003;67092;64.282;21.056;2023-03-14T01:48:07;6;6;
77896;PMS5003;67092;64.282;21.056;2023-03-14T01:50:33;6;6;
77896;PMS5003;67092;64.282;21.056;2023-03-14T01:52:58;7;6;
77896;PMS5003;67092;64.282;21.056;2023-03-14T01:55:24;8;6;
77896;PMS5003;67092;64.282;21.056;2023-03-14T01:57:50;8;6;
77896;PMS5003;67092;64.282;21.056;2023-03-14T02:00:16;6;6;
77896;PMS5003;67092;64.282;21.056;2023-03-14T02:02:42;7;7;
77896;PMS5003;67092;64.282;21.056;2023-03-14T02:05:07;5;4;
77896;PMS5003;67092;64.282;21.056;2023-03-14T02:07:33;7;7;
77896;PMS5003;67092;64.282;21.056;2023-03-14T02:09:58;9;8;
77896;PMS5003;67092;64.282;21.056;2023-03-14T02:12:24;9;8;
77896;PMS5003;67092;64.282;21.056;2023-03-14T02:14:49;7;6;
77896;PMS5003;67092;64.282;21.056;2023-03-14T02:17:16;9;8;
77896;PMS5003;67092;64.282;21.056;2023-03-14T02:19:47;7;7;
77896;PMS5003;67092;64.282;21.056;2023-03-14T02:22:07;7;7;
77896;PMS5003;67092;64.282;21.056;2023-03-14T02:24:33;7;7;
77896;PMS5003;67092;64.282;21.056;2023-03-14T02:27:03;5;5;
77896;PMS5003;67092;64.282;21.056;2023-03-14T02:29:23;5;5;
77896;PMS5003;67092;64.282;21.056;2023-03-14T02:31:49;8;7;
77896;PMS5003;67092;64.282;21.056;2023-03-14T02:34:15;7;6;
77896;PMS5003;67092;64.282;21.056;2023-03-14T02:36:40;6;6;
77896;PMS5003;67092;64.282;21.056;2023-03-14T02:39:07;7;7;
77896;PMS5003;67092;64.282;21.056;2023-03-14T02:41:32;7;6;
77896;PMS5003;67092;64.282;21.056;2023-03-14T02:43:57;5;5;
77896;PMS5003;67092;64.282;21.056;2023-03-14T02:46:23;5;5;
77896;PMS5003;67092;64.282;21.056;2023-03-14T02:48:49;6;6;
77896;PMS5003;67092;64.282;21.056;2023-03-14T02:51:14;7;7;
77896;PMS5003;67092;64.282;21.056;2023-03-14T02:53:40;4;4;
77896;PMS5003;67092;64.282;21.056;2023-03-14T02:56:06;6;6;
77896;PMS5003;67092;64.282;21.056;2023-03-14T02:58:31;5;5;
77896;PMS5003;67092;64.282;21.056;2023-03-14T03:00:57;4;4;
77896;PMS5003;67092;64.282;21.056;2023-03-14T03:03:22;7;7;
77896;PMS5003;67092;64.282;21.056;2023-03-14T03:05:48;4;4;
77896;PMS5003;67092;64.282;21.056;2023-03-14T03:08:14;6;6;
77896;PMS5003;67092;64.282;21.056;2023-03-14T03:10:39;7;6;
77896;PMS5003;67092;64.282;21.056;2023-03-14T03:13:05;5;5;
77896;PMS5003;67092;64.282;21.056;2023-03-14T03:15:30;7;6;
77896;PMS5003;67092;64.282;21.056;2023-03-14T03:17:56;3;3;
77896;PMS5003;67092;64.282;21.056;2023-03-14T03:20:22;6;5;
77896;PMS5003;67092;64.282;21.056;2023-03-14T03:22:47;5;5;
77896;PMS5003;67092;64.282;21.056;2023-03-14T03:25:13;6;5;
77896;PMS5003;67092;64.282;21.056;2023-03-14T03:27:39;6;6;
77896;PMS5003;67092;64.282;21.056;2023-03-14T03:30:05;5;5;
77896;PMS5003;67092;64.282;21.056;2023-03-14T03:32:30;5;4;
77896;PMS5003;67092;64.282;21.056;2023-03-14T03:34:56;6;6;
77896;PMS5003;67092;64.282;21.056;2023-03-14T03:37:22;5;5;
77896;PMS5003;67092;64.282;21.056;2023-03-14T03:39:49;4;4;
77896;PMS5003;67092;64.282;21.056;2023-03-14T03:42:13;5;5;
77896;PMS5003;67092;64.282;21.056;2023-03-14T03:44:38;4;4;
77896;PMS5003;67092;64.282;21.056;2023-03-14T03:47:04;5;4;
77896;PMS5003;67092;64.282;21.056;2023-03-14T03:49:30;4;4;
77896;PMS5003;67092;64.282;21.056;2023-03-14T03:51:55;5;5;
77896;PMS5003;67092;64.282;21.056;2023-03-14T03:54:21;4;4;
77896;PMS5003;67092;64.282;21.056;2023-03-14T03:56:46;4;4;
77896;PMS5003;67092;64.282;21.056;2023-03-14T03:59:12;4;4;
77896;PMS5003;67092;64.282;21.056;2023-03-14T04:01:38;5;5;
77896;PMS5003;67092;64.282;21.056;2023-03-14T04:04:03;4;4;
77896;PMS5003;67092;64.282;21.056;2023-03-14T04:06:29;4;4;
77896;PMS5003;67092;64.282;21.056;2023-03-14T04:08:55;4;4;
77896;PMS5003;67092;64.282;21.056;2023-03-14T04:11:20;3;3;
77896;PMS5003;67092;64.282;21.056;2023-03-14T04:13:46;4;4;
77896;PMS5003;67092;64.282;21.056;2023-03-14T04:16:13;4;4;
77896;PMS5003;67092;64.282;21.056;2023-03-14T04:18:37;3;3;
77896;PMS5003;67092;64.282;21.056;2023-03-14T04:21:03;4;3;
77896;PMS5003;67092;64.282;21.056;2023-03-14T04:23:29;3;3;
77896;PMS5003;67092;64.282;21.056;2023-03-14T04:25:54;4;4;
77896;PMS5003;67092;64.282;21.056;2023-03-14T04:28:20;3;3;
77896;PMS5003;67092;64.282;21.056;2023-03-14T04:30:46;5;5;
77896;PMS5003;67092;64.282;21.056;2023-03-14T04:33:11;3;3;
77896;PMS5003;67092;64.282;21.056;2023-03-14T04:35:37;5;4;
77896;PMS5003;67092;64.282;21.056;2023-03-14T04:38:02;5;5;
77896;PMS5003;67092;64.282;21.056;2023-03-14T04:40:28;5;5;
77896;PMS5003;67092;64.282;21.056;2023-03-14T04:42:54;5;5;
77896;PMS5003;67092;64.282;21.056;2023-03-14T04:45:19;4;4;
77896;PMS5003;67092;64.282;21.056;2023-03-14T04:47:45;2;2;
77896;PMS5003;67092;64.282;21.056;2023-03-14T04:50:11;3;3;
77896;PMS5003;67092;64.282;21.056;2023-03-14T04:52:36;3;3;
77896;PMS5003;67092;64.282;21.056;2023-03-14T04:55:02;5;4;
77896;PMS5003;67092;64.282;21.056;2023-03-14T04:57:28;3;3;
77896;PMS5003;67092;64.282;21.056;2023-03-14T04:59:53;3;3;
77896;PMS5003;67092;64.282;21.056;2023-03-14T05:02:19;2;2;
77896;PMS5003;67092;64.282;21.056;2023-03-14T05:04:45;4;3;
77896;PMS5003;67092;64.282;21.056;2023-03-14T05:07:10;3;3;
77896;PMS5003;67092;64.282;21.056;2023-03-14T05:09:36;2;2;
77896;PMS5003;67092;64.282;21.056;2023-03-14T05:12:02;1;1;
77896;PMS5003;67092;64.282;21.056;2023-03-14T05:14:27;4;4;
77896;PMS5003;67092;64.282;21.056;2023-03-14T05:16:53;3;2;
77896;PMS5003;67092;64.282;21.056;2023-03-14T05:19:19;2;2;
77896;PMS5003;67092;64.282;21.056;2023-03-14T05:21:44;3;3;
77896;PMS5003;67092;64.282;21.056;2023-03-14T05:24:10;4;4;
77896;PMS5003;67092;64.282;21.056;2023-03-14T05:26:35;2;2;
77896;PMS5003;67092;64.282;21.056;2023-03-14T05:29:01;3;3;
77896;PMS5003;67092;64.282;21.056;2023-03-14T05:31:27;4;3;
77896;PMS5003;67092;64.282;21.056;2023-03-14T05:33:52;3;3;
77896;PMS5003;67092;64.282;21.056;2023-03-14T05:36:18;3;3;
77896;PMS5003;67092;64.282;21.056;2023-03-14T05:38:44;3;2;
77896;PMS5003;67092;64.282;21.056;2023-03-14T05:41:09;2;1;
77896;PMS5003;67092;64.282;21.056;2023-03-14T05:43:35;2;2;
77896;PMS5003;67092;64.282;21.056;2023-03-14T05:46:01;3;3;
77896;PMS5003;67092;64.282;21.056;2023-03-14T05:48:26;4;3;
77896;PMS5003;67092;64.282;21.056;2023-03-14T05:50:54;2;2;
77896;PMS5003;67092;64.282;21.056;2023-03-14T05:53:17;2;2;
77896;PMS5003;67092;64.282;21.056;2023-03-14T05:55:43;3;3;
77896;PMS5003;67092;64.282;21.056;2023-03-14T05:58:08;2;2;
77896;PMS5003;67092;64.282;21.056;2023-03-14T06:00:34;3;3;
77896;PMS5003;67092;64.282;21.056;2023-03-14T06:02:59;2;2;
77896;PMS5003;67092;64.282;21.056;2023-03-14T06:05:25;2;2;
77896;PMS5003;67092;64.282;21.056;2023-03-14T06:07:51;4;3;
77896;PMS5003;67092;64.282;21.056;2023-03-14T06:10:16;3;2;
77896;PMS5003;67092;64.282;21.056;2023-03-14T06:12:42;2;2;
77896;PMS5003;67092;64.282;21.056;2023-03-14T06:15:08;3;3;
77896;PMS5003;67092;64.282;21.056;2023-03-14T06:17:33;2;2;
77896;PMS5003;67092;64.282;21.056;2023-03-14T06:19:59;3;2;
77896;PMS5003;67092;64.282;21.056;2023-03-14T06:22:25;1;1;
77896;PMS5003;67092;64.282;21.056;2023-03-14T06:24:50;3;3;
77896;PMS5003;67092;64.282;21.056;2023-03-14T06:27:16;1;1;
77896;PMS5003;67092;64.282;21.056;2023-03-14T06:29:42;3;2;
77896;PMS5003;67092;64.282;21.056;2023-03-14T06:32:07;1;1;
77896;PMS5003;67092;64.282;21.056;2023-03-14T06:34:33;1;1;
77896;PMS5003;67092;64.282;21.056;2023-03-14T06:36:59;1;1;
77896;PMS5003;67092;64.282;21.056;2023-03-14T06:39:24;2;2;
77896;PMS5003;67092;64.282;21.056;2023-03-14T06:41:50;2;2;
77896;PMS5003;67092;64.282;21.056;2023-03-14T06:44:15;3;2;
77896;PMS5003;67092;64.282;21.056;2023-03-14T06:46:41;2;2;
77896;PMS5003;67092;64.282;21.056;2023-03-14T06:49:07;0;0;
77896;PMS5003;67092;64.282;21.056;2023-03-14T06:51:33;1;1;
77896;PMS5003;67092;64.282;21.056;2023-03-14T06:53:58;2;2;
77896;PMS5003;67092;64.282;21.056;2023-03-14T06:56:24;2;2;
77896;PMS5003;67092;64.282;21.056;2023-03-14T06:58:49;1;1;
77896;PMS5003;67092;64.282;21.056;2023-03-14T07:01:17;4;3;
77896;PMS5003;67092;64.282;21.056;2023-03-14T07:03:41;2;2;
77896;PMS5003;67092;64.282;21.056;2023-03-14T07:06:06;3;2;
77896;PMS5003;67092;64.282;21.056;2023-03-14T07:08:32;1;1;
77896;PMS5003;67092;64.282;21.056;2023-03-14T07:10:57;2;2;
77896;PMS5003;67092;64.282;21.056;2023-03-14T07:13:23;2;1;
77896;PMS5003;67092;64.282;21.056;2023-03-14T07:15:49;3;2;
77896;PMS5003;67092;64.282;21.056;2023-03-14T07:18:14;2;2;
77896;PMS5003;67092;64.282;21.056;2023-03-14T07:20:40;1;1;
77896;PMS5003;67092;64.282;21.056;2023-03-14T07:23:06;3;2;
77896;PMS5003;67092;64.282;21.056;2023-03-14T07:25:31;3;2;
77896;PMS5003;67092;64.282;21.056;2023-03-14T07:27:57;1;1;
77896;PMS5003;67092;64.282;21.056;2023-03-14T07:30:23;2;2;
77896;PMS5003;67092;64.282;21.056;2023-03-14T07:32:49;1;1;
77896;PMS5003;67092;64.282;21.056;2023-03-14T07:35:14;3;2;
77896;PMS5003;67092;64.282;21.056;2023-03-14T07:37:39;3;3;
77896;PMS5003;67092;64.282;21.056;2023-03-14T07:40:07;2;2;
77896;PMS5003;67092;64.282;21.056;2023-03-14T07:42:31;2;2;
77896;PMS5003;67092;64.282;21.056;2023-03-14T07:44:56;2;2;
77896;PMS5003;67092;64.282;21.056;2023-03-14T07:47:22;3;2;
77896;PMS5003;67092;64.282;21.056;2023-03-14T07:49:48;1;1;
77896;PMS5003;67092;64.282;21.056;2023-03-14T07:52:13;2;2;
77896;PMS5003;67092;64.282;21.056;2023-03-14T07:54:39;2;2;
77896;PMS5003;67092;64.282;21.056;2023-03-14T07:57:05;2;2;
77896;PMS5003;67092;64.282;21.056;2023-03-14T07:59:31;2;2;
77896;PMS5003;67092;64.282;21.056;2023-03-14T08:01:56;1;1;
77896;PMS5003;67092;64.282;21.056;2023-03-14T08:04:22;2;2;
77896;PMS5003;67092;64.282;21.056;2023-03-14T08:06:47;1;1;
77896;PMS5003;67092;64.282;21.056;2023-03-14T08:09:13;2;1;
77896;PMS5003;67092;64.282;21.056;2023-03-14T08:11:39;1;1;
77896;PMS5003;67092;64.282;21.056;2023-03-14T08:14:04;2;2;
77896;PMS5003;67092;64.282;21.056;2023-03-14T08:16:30;1;1;
77896;PMS5003;67092;64.282;21.056;2023-03-14T08:18:55;2;2;
77896;PMS5003;67092;64.282;21.056;2023-03-14T08:21:21;3;1;
77896;PMS5003;67092;64.282;21.056;2023-03-14T08:23:47;2;2;
77896;PMS5003;67092;64.282;21.056;2023-03-14T08:26:12;2;2;
77896;PMS5003;67092;64.282;21.056;2023-03-14T08:28:38;1;1;
77896;PMS5003;67092;64.282;21.056;2023-03-14T08:31:04;1;1;
77896;PMS5003;67092;64.282;21.056;2023-03-14T08:33:29;1;1;
77896;PMS5003;67092;64.282;21.056;2023-03-14T08:35:55;1;1;
77896;PMS5003;67092;64.282;21.056;2023-03-14T08:38:21;1;1;
77896;PMS5003;67092;64.282;21.056;2023-03-14T08:40:46;1;1;
77896;PMS5003;67092;64.282;21.056;2023-03-14T08:43:12;2;1;
77896;PMS5003;67092;64.282;21.056;2023-03-14T08:45:38;1;1;
77896;PMS5003;67092;64.282;21.056;2023-03-14T08:48:04;2;2;
77896;PMS5003;67092;64.282;21.056;2023-03-14T08:50:29;2;2;
77896;PMS5003;67092;64.282;21.056;2023-03-14T08:52:55;2;1;
77896;PMS5003;67092;64.282;21.056;2023-03-14T08:55:20;1;1;
77896;PMS5003;67092;64.282;21.056;2023-03-14T08:57:46;0;0;
77896;PMS5003;67092;64.282;21.056;2023-03-14T09:00:12;1;1;
77896;PMS5003;67092;64.282;21.056;2023-03-14T09:02:37;1;1;
77896;PMS5003;67092;64.282;21.056;2023-03-14T09:05:03;1;1;
77896;PMS5003;67092;64.282;21.056;2023-03-14T09:07:28;0;0;
77896;PMS5003;67092;64.282;21.056;2023-03-14T09:09:54;1;1;
77896;PMS5003;67092;64.282;21.056;2023-03-14T09:12:20;1;1;
77896;PMS5003;67092;64.282;21.056;2023-03-14T09:14:45;1;1;
77896;PMS5003;67092;64.282;21.056;2023-03-14T09:17:11;2;1;
77896;PMS5003;67092;64.282;21.056;2023-03-14T09:19:37;1;1;
77896;PMS5003;67092;64.282;21.056;2023-03-14T09:22:02;2;1;
77896;PMS5003;67092;64.282;21.056;2023-03-14T09:24:28;2;1;
77896;PMS5003;67092;64.282;21.056;2023-03-14T09:26:54;0;0;
77896;PMS5003;67092;64.282;21.056;2023-03-14T09:29:19;1;1;
77896;PMS5003;67092;64.282;21.056;2023-03-14T09:31:45;0;0;
77896;PMS5003;67092;64.282;21.056;2023-03-14T09:34:10;1;1;
77896;PMS5003;67092;64.282;21.056;2023-03-14T09:36:36;1;1;
77896;PMS5003;67092;64.282;21.056;2023-03-14T09:39:02;1;1;
77896;PMS5003;67092;64.282;21.056;2023-03-14T09:41:28;1;1;
77896;PMS5003;67092;64.282;21.056;2023-03-14T09:43:55;1;1;
77896;PMS5003;67092;64.282;21.056;2023-03-14T09:46:19;0;0;
77896;PMS5003;67092;64.282;21.056;2023-03-14T09:48:44;0;0;
77896;PMS5003;67092;64.282;21.056;2023-03-14T09:51:12;1;1;
77896;PMS5003;67092;64.282;21.056;2023-03-14T09:53:37;0;0;
77896;PMS5003;67092;64.282;21.056;2023-03-14T09:56:01;2;2;
77896;PMS5003;67092;64.282;21.056;2023-03-14T09:58:27;1;1;
77896;PMS5003;67092;64.282;21.056;2023-03-14T10:00:53;1;0;
77896;PMS5003;67092;64.282;21.056;2023-03-14T10:03:21;1;1;
77896;PMS5003;67092;64.282;21.056;2023-03-14T10:05:44;0;0;
77896;PMS5003;67092;64.282;21.056;2023-03-14T10:08:10;0;0;
77896;PMS5003;67092;64.282;21.056;2023-03-14T10:10:35;1;1;
77896;PMS5003;67092;64.282;21.056;2023-03-14T10:13:05;1;1;
77896;PMS5003;67092;64.282;21.056;2023-03-14T10:15:30;1;1;
77896;PMS5003;67092;64.282;21.056;2023-03-14T10:17:52;1;1;
77896;PMS5003;67092;64.282;21.056;2023-03-14T10:22:43;1;1;
77896;PMS5003;67092;64.282;21.056;2023-03-14T10:25:19;0;0;
77896;PMS5003;67092;64.282;21.056;2023-03-14T10:27:35;1;1;
77896;PMS5003;67092;64.282;21.056;2023-03-14T10:30:01;0;0;
77896;PMS5003;67092;64.282;21.056;2023-03-14T10:32:28;1;1;
77896;PMS5003;67092;64.282;21.056;2023-03-14T10:37:18;2;2;
77896;PMS5003;67092;64.282;21.056;2023-03-14T10:39:45;1;1;
77896;PMS5003;67092;64.282;21.056;2023-03-14T10:42:13;1;1;
77896;PMS5003;67092;64.282;21.056;2023-03-14T10:44:34;1;1;
77896;PMS5003;67092;64.282;21.056;2023-03-14T10:47:00;1;1;
77896;PMS5003;67092;64.282;21.056;2023-03-14T10:49:27;0;0;
77896;PMS5003;67092;64.282;21.056;2023-03-14T10:51:51;0;0;
77896;PMS5003;67092;64.282;21.056;2023-03-14T10:54:19;0;0;
77896;PMS5003;67092;64.282;21.056;2023-03-14T10:56:42;0;0;
77896;PMS5003;67092;64.282;21.056;2023-03-14T10:59:11;1;1;
77896;PMS5003;67092;64.282;21.056;2023-03-14T11:01:37;1;1;
77896;PMS5003;67092;64.282;21.056;2023-03-14T11:04:01;1;1;
77896;PMS5003;67092;64.282;21.056;2023-03-14T11:06:26;0;0;
77896;PMS5003;67092;64.282;21.056;2023-03-14T11:08:52;1;1;
77896;PMS5003;67092;64.282;21.056;2023-03-14T11:11:18;1;1;
77896;PMS5003;67092;64.282;21.056;2023-03-14T11:13:43;0;0;
77896;PMS5003;67092;64.282;21.056;2023-03-14T11:16:09;1;1;
77896;PMS5003;67092;64.282;21.056;2023-03-14T11:18:39;1;1;
77896;PMS5003;67092;64.282;21.056;2023-03-14T11:20:59;1;1;
77896;PMS5003;67092;64.282;21.056;2023-03-14T11:23:26;1;1;
77896;PMS5003;67092;64.282;21.056;2023-03-14T11:25:53;1;0;
77896;PMS5003;67092;64.282;21.056;2023-03-14T11:28:18;0;0;
77896;PMS5003;67092;64.282;21.056;2023-03-14T11:30:42;1;1;
77896;PMS5003;67092;64.282;21.056;2023-03-14T11:33:08;1;1;
77896;PMS5003;67092;64.282;21.056;2023-03-14T11:35:33;1;1;
77896;PMS5003;67092;64.282;21.056;2023-03-14T11:38:00;2;1;
77896;PMS5003;67092;64.282;21.056;2023-03-14T11:40:25;1;1;
77896;PMS5003;67092;64.282;21.056;2023-03-14T11:42:56;0;0;
77896;PMS5003;67092;64.282;21.056;2023-03-14T11:45:16;2;1;
77896;PMS5003;67092;64.282;21.056;2023-03-14T11:47:41;1;1;
77896;PMS5003;67092;64.282;21.056;2023-03-14T11:50:08;1;1;
77896;PMS5003;67092;64.282;21.056;2023-03-14T11:52:33;0;0;
77896;PMS5003;67092;64.282;21.056;2023-03-14T11:54:58;0;0;
77896;PMS5003;67092;64.282;21.056;2023-03-14T11:57:23;0;0;
77896;PMS5003;67092;64.282;21.056;2023-03-14T11:59:50;0;0;
77896;PMS5003;67092;64.282;21.056;2023-03-14T12:02:17;0;0;
77896;PMS5003;67092;64.282;21.056;2023-03-14T12:04:42;1;1;
77896;PMS5003;67092;64.282;21.056;2023-03-14T12:07:07;1;1;
77896;PMS5003;67092;64.282;21.056;2023-03-14T12:09:32;1;1;
77896;PMS5003;67092;64.282;21.056;2023-03-14T12:11:58;0;0;
77896;PMS5003;67092;64.282;21.056;2023-03-14T12:14:24;1;1;
77896;PMS5003;67092;64.282;21.056;2023-03-14T12:16:50;1;1;
77896;PMS5003;67092;64.282;21.056;2023-03-14T12:21:45;1;1;
77896;PMS5003;67092;64.282;21.056;2023-03-14T12:24:14;1;1;
77896;PMS5003;67092;64.282;21.056;2023-03-14T12:33:48;2;1;
77896;PMS5003;67092;64.282;21.056;2023-03-14T12:36:20;1;1;
77896;PMS5003;67092;64.282;21.056;2023-03-14T12:38:45;1;1;
77896;PMS5003;67092;64.282;21.056;2023-03-14T12:41:06;1;1;
77896;PMS5003;67092;64.282;21.056;2023-03-14T12:43:31;1;1;
77896;PMS5003;67092;64.282;21.056;2023-03-14T12:48:22;1;1;
77896;PMS5003;67092;64.282;21.056;2023-03-14T12:53:35;1;0;
77896;PMS5003;67092;64.282;21.056;2023-03-14T12:55:40;0;0;
77896;PMS5003;67092;64.282;21.056;2023-03-14T12:58:06;2;1;
77896;PMS5003;67092;64.282;21.056;2023-03-14T13:00:31;0;0;
77896;PMS5003;67092;64.282;21.056;2023-03-14T13:02:59;1;1;
77896;PMS5003;67092;64.282;21.056;2023-03-14T13:05:22;1;1;
77896;PMS5003;67092;64.282;21.056;2023-03-14T13:10:18;1;1;
77896;PMS5003;67092;64.282;21.056;2023-03-14T13:12:40;1;1;
77896;PMS5003;67092;64.282;21.056;2023-03-14T13:17:31;2;2;
77896;PMS5003;67092;64.282;21.056;2023-03-14T13:19:56;1;1;
77896;PMS5003;67092;64.282;21.056;2023-03-14T13:22:23;1;1;
77896;PMS5003;67092;64.282;21.056;2023-03-14T13:24:47;1;1;
77896;PMS5003;67092;64.282;21.056;2023-03-14T13:27:15;2;1;
77896;PMS5003;67092;64.282;21.056;2023-03-14T13:29:38;2;1;
77896;PMS5003;67092;64.282;21.056;2023-03-14T13:34:30;2;2;
77896;PMS5003;67092;64.282;21.056;2023-03-14T13:36:55;1;1;
77896;PMS5003;67092;64.282;21.056;2023-03-14T13:39:21;1;1;
77896;PMS5003;67092;64.282;21.056;2023-03-14T13:41:46;1;1;
77896;PMS5003;67092;64.282;21.056;2023-03-14T13:44:13;0;0;
77896;PMS5003;67092;64.282;21.056;2023-03-14T13:46:38;2;2;
77896;PMS5003;67092;64.282;21.056;2023-03-14T13:49:04;2;1;
77896;PMS5003;67092;64.282;21.056;2023-03-14T13:51:29;1;1;
77896;PMS5003;67092;64.282;21.056;2023-03-14T13:53:55;1;1;
77896;PMS5003;67092;64.282;21.056;2023-03-14T13:56:20;0;0;
77896;PMS5003;67092;64.282;21.056;2023-03-14T13:58:46;2;2;
77896;PMS5003;67092;64.282;21.056;2023-03-14T14:01:13;1;1;
77896;PMS5003;67092;64.282;21.056;2023-03-14T14:03:38;0;0;
77896;PMS5003;67092;64.282;21.056;2023-03-14T14:06:03;1;1;
77896;PMS5003;67092;64.282;21.056;2023-03-14T14:08:28;1;0;
77896;PMS5003;67092;64.282;21.056;2023-03-14T14:10:55;1;1;
77896;PMS5003;67092;64.282;21.056;2023-03-14T14:13:20;1;1;
77896;PMS5003;67092;64.282;21.056;2023-03-14T14:15:46;2;2;
77896;PMS5003;67092;64.282;21.056;2023-03-14T14:18:11;2;2;
77896;PMS5003;67092;64.282;21.056;2023-03-14T14:20:37;3;2;
77896;PMS5003;67092;64.282;21.056;2023-03-14T14:23:03;1;1;
77896;PMS5003;67092;64.282;21.056;2023-03-14T14:25:28;1;1;
77896;PMS5003;67092;64.282;21.056;2023-03-14T14:27:54;1;1;
77896;PMS5003;67092;64.282;21.056;2023-03-14T14:30:26;2;1;
77896;PMS5003;67092;64.282;21.056;2023-03-14T14:32:46;1;1;
77896;PMS5003;67092;64.282;21.056;2023-03-14T14:35:17;2;1;
77896;PMS5003;67092;64.282;21.056;2023-03-14T14:37:41;1;1;
77896;PMS5003;67092;64.282;21.056;2023-03-14T14:40:07;1;1;
77896;PMS5003;67092;64.282;21.056;2023-03-14T14:42:28;1;1;
77896;PMS5003;67092;64.282;21.056;2023-03-14T14:44:53;2;2;
77896;PMS5003;67092;64.282;21.056;2023-03-14T14:47:20;1;1;
77896;PMS5003;67092;64.282;21.056;2023-03-14T14:49:44;1;1;
77896;PMS5003;67092;64.282;21.056;2023-03-14T14:52:12;2;2;
77896;PMS5003;67092;64.282;21.056;2023-03-14T14:54:37;2;2;
77896;PMS5003;67092;64.282;21.056;2023-03-14T14:57:02;1;1;
77896;PMS5003;67092;64.282;21.056;2023-03-14T14:59:27;1;1;
77896;PMS5003;67092;64.282;21.056;2023-03-14T15:01:56;1;0;
77896;PMS5003;67092;64.282;21.056;2023-03-14T15:04:18;1;1;
77896;PMS5003;67092;64.282;21.056;2023-03-14T15:06:44;0;0;
77896;PMS5003;67092;64.282;21.056;2023-03-14T15:09:10;2;2;
77896;PMS5003;67092;64.282;21.056;2023-03-14T15:11:35;1;1;
77896;PMS5003;67092;64.282;21.056;2023-03-14T15:14:01;2;1;
77896;PMS5003;67092;64.282;21.056;2023-03-14T15:16:27;1;1;
77896;PMS5003;67092;64.282;21.056;2023-03-14T15:18:53;1;1;
77896;PMS5003;67092;64.282;21.056;2023-03-14T15:21:18;0;0;
77896;PMS5003;67092;64.282;21.056;2023-03-14T15:23:43;0;0;
77896;PMS5003;67092;64.282;21.056;2023-03-14T15:26:11;0;0;
77896;PMS5003;67092;64.282;21.056;2023-03-14T15:28:35;2;1;
77896;PMS5003;67092;64.282;21.056;2023-03-14T15:31:00;1;1;
77896;PMS5003;67092;64.282;21.056;2023-03-14T15:33:26;1;1;
77896;PMS5003;67092;64.282;21.056;2023-03-14T15:35:52;1;1;
77896;PMS5003;67092;64.282;21.056;2023-03-14T15:38:18;1;1;
77896;PMS5003;67092;64.282;21.056;2023-03-14T15:40:43;1;1;
77896;PMS5003;67092;64.282;21.056;2023-03-14T15:43:09;1;1;
77896;PMS5003;67092;64.282;21.056;2023-03-14T15:45:34;1;1;
77896;PMS5003;67092;64.282;21.056;2023-03-14T15:48:00;2;1;
77896;PMS5003;67092;64.282;21.056;2023-03-14T15:50:26;3;2;
77896;PMS5003;67092;64.282;21.056;2023-03-14T15:52:56;3;2;
77896;PMS5003;67092;64.282;21.056;2023-03-14T15:55:17;1;1;
77896;PMS5003;67092;64.282;21.056;2023-03-14T15:57:42;1;1;
77896;PMS5003;67092;64.282;21.056;2023-03-14T16:00:10;0;0;
77896;PMS5003;67092;64.282;21.056;2023-03-14T16:02:34;2;2;
77896;PMS5003;67092;64.282;21.056;2023-03-14T16:04:59;0;0;
77896;PMS5003;67092;64.282;21.056;2023-03-14T16:07:25;1;1;
77896;PMS5003;67092;64.282;21.056;2023-03-14T16:09:51;2;2;
77896;PMS5003;67092;64.282;21.056;2023-03-14T16:12:16;1;1;
77896;PMS5003;67092;64.282;21.056;2023-03-14T16:14:42;2;2;
77896;PMS5003;67092;64.282;21.056;2023-03-14T16:17:08;0;0;
77896;PMS5003;67092;64.282;21.056;2023-03-14T16:19:33;2;1;
77896;PMS5003;67092;64.282;21.056;2023-03-14T16:21:59;0;0;
77896;PMS5003;67092;64.282;21.056;2023-03-14T16:24:24;1;1;
77896;PMS5003;67092;64.282;21.056;2023-03-14T16:26:50;2;1;
77896;PMS5003;67092;64.282;21.056;2023-03-14T16:29:16;1;1;
77896;PMS5003;67092;64.282;21.056;2023-03-14T16:31:41;1;1;
77896;PMS5003;67092;64.282;21.056;2023-03-14T16:34:07;1;1;
77896;PMS5003;67092;64.282;21.056;2023-03-14T16:36:33;1;1;
77896;PMS5003;67092;64.282;21.056;2023-03-14T16:38:58;1;1;
77896;PMS5003;67092;64.282;21.056;2023-03-14T16:41:24;1;1;
77896;PMS5003;67092;64.282;21.056;2023-03-14T16:43:49;2;1;
77896;PMS5003;67092;64.282;21.056;2023-03-14T16:46:15;1;1;
77896;PMS5003;67092;64.282;21.056;2023-03-14T16:48:41;2;1;
77896;PMS5003;67092;64.282;21.056;2023-03-14T16:51:17;1;1;